createdAt,value
2022-08-27T00:00:58.289Z,21.62
2022-08-27T00:02:01.093Z,21.63
2022-08-27T00:03:05.135Z,21.68
2022-08-27T00:04:10.095Z,21.74
2022-08-27T00:05:14.848Z,21.50
2022-08-27T00:06:22.285Z,21.60
2022-08-27T00:07:24.977Z,21.58
2022-08-27T00:08:27.652Z,21.48
2022-08-27T00:09:33.049Z,21.46
2022-08-27T00:10:38.454Z,21.43
2022-08-27T00:11:41.443Z,21.40
2022-08-27T00:12:47.731Z,21.46
2022-08-27T00:13:50.374Z,21.38
2022-08-27T00:14:56.318Z,21.34
2022-08-27T00:16:00.552Z,21.30
2022-08-27T00:17:04.635Z,21.32
2022-08-27T00:18:07.438Z,21.29
2022-08-27T00:19:09.992Z,21.21
2022-08-27T00:20:15.160Z,21.25
2022-08-27T00:21:18.026Z,21.12
2022-08-27T00:22:20.659Z,21.21
2022-08-27T00:23:23.049Z,21.25
2022-08-27T00:24:27.131Z,21.29
2022-08-27T00:25:29.795Z,21.26
2022-08-27T00:26:32.902Z,21.17
2022-08-27T00:27:35.319Z,21.17
2022-08-27T00:28:37.897Z,21.20
2022-08-27T00:29:40.388Z,21.14
2022-08-27T00:30:43.694Z,21.10
2022-08-27T00:31:46.600Z,20.90
2022-08-27T00:32:50.674Z,21.19
2022-08-27T00:33:53.154Z,21.14
2022-08-27T00:34:56.044Z,21.14
2022-08-27T00:35:59.674Z,21.15
2022-08-27T00:37:03.941Z,21.15
2022-08-27T00:38:11.859Z,21.13
2022-08-27T00:39:14.661Z,21.29
2022-08-27T00:40:20.724Z,21.20
2022-08-27T00:41:23.497Z,21.14
2022-08-27T00:42:31.059Z,21.13
2022-08-27T00:43:48.580Z,21.13
2022-08-27T00:44:51.383Z,21.24
2022-08-27T00:45:57.438Z,21.18
2022-08-27T00:47:05.114Z,21.25
2022-08-27T00:48:10.146Z,21.20
2022-08-27T00:50:55.044Z,21.29
2022-08-27T00:52:04.133Z,21.19
2022-08-27T00:53:21.815Z,21.17
2022-08-27T00:54:26.394Z,21.21
2022-08-27T00:55:32.360Z,21.13
2022-08-27T00:56:40.317Z,21.15
2022-08-27T00:57:43.538Z,21.05
2022-08-27T00:58:49.356Z,21.04
2022-08-27T00:59:51.892Z,21.02
2022-08-27T01:00:55.031Z,21.06
2022-08-27T01:01:59.180Z,20.97
2022-08-27T01:03:02.066Z,20.95
2022-08-27T01:04:05.167Z,21.08
2022-08-27T01:05:13.341Z,21.01
2022-08-27T01:06:20.186Z,21.01
2022-08-27T01:07:25.079Z,21.10
2022-08-27T01:08:33.074Z,21.15
2022-08-27T01:09:37.064Z,21.13
2022-08-27T01:10:41.511Z,20.90
2022-08-27T01:11:46.380Z,21.06
2022-08-27T01:12:53.798Z,21.01
2022-08-27T01:14:00.831Z,21.07
2022-08-27T01:15:00.743Z,21.10
2022-08-27T01:16:05.309Z,21.01
2022-08-27T01:17:09.733Z,21.05
2022-08-27T01:18:13.462Z,21.01
2022-08-27T01:19:28.338Z,21.01
2022-08-27T01:20:43.737Z,20.91
2022-08-27T01:21:52.914Z,21.01
2022-08-27T01:23:24.448Z,20.93
2022-08-27T01:24:47.656Z,21.01
2022-08-27T01:25:51.695Z,20.96
2022-08-27T01:26:54.989Z,20.93
2022-08-27T01:27:59.044Z,20.92
2022-08-27T01:29:02.562Z,20.92
2022-08-27T01:30:07.007Z,20.95
2022-08-27T01:31:11.489Z,20.91
2022-08-27T01:32:17.869Z,20.91
2022-08-27T01:33:21.372Z,20.95
2022-08-27T01:34:23.657Z,21.04
2022-08-27T01:35:26.471Z,20.97
2022-08-27T01:36:30.606Z,20.95
2022-08-27T01:37:33.200Z,20.92
2022-08-27T01:38:35.809Z,20.86
2022-08-27T01:39:40.741Z,20.96
2022-08-27T01:40:44.080Z,20.94
2022-08-27T01:41:48.433Z,20.73
2022-08-27T01:42:55.238Z,20.79
2022-08-27T01:43:57.662Z,20.72
2022-08-27T01:45:05.916Z,20.72
2022-08-27T01:46:09.104Z,20.63
2022-08-27T01:47:11.932Z,20.74
2022-08-27T01:48:16.031Z,20.73
2022-08-27T01:49:18.522Z,20.75
2022-08-27T01:50:25.452Z,20.78
2022-08-27T01:51:28.351Z,20.63
2022-08-27T01:52:30.751Z,20.78
2022-08-27T01:53:33.767Z,20.67
2022-08-27T01:54:36.657Z,20.73
2022-08-27T01:55:41.728Z,20.73
2022-08-27T01:56:46.288Z,20.70
2022-08-27T01:57:49.067Z,20.62
2022-08-27T01:58:51.570Z,20.63
2022-08-27T01:59:54.753Z,20.63
2022-08-27T02:01:03.574Z,20.71
2022-08-27T02:02:08.005Z,20.67
2022-08-27T02:03:12.084Z,20.69
2022-08-27T02:04:14.464Z,20.63
2022-08-27T02:05:17.625Z,20.61
2022-08-27T02:06:21.983Z,20.56
2022-08-27T02:07:24.565Z,20.48
2022-08-27T02:08:27.043Z,20.49
2022-08-27T02:09:29.165Z,20.47
2022-08-27T02:10:35.340Z,20.47
2022-08-27T02:11:44.710Z,20.61
2022-08-27T02:12:42.140Z,20.58
2022-08-27T02:13:44.470Z,20.52
2022-08-27T02:14:46.764Z,20.56
2022-08-27T02:15:49.317Z,20.67
2022-08-27T02:16:53.080Z,20.68
2022-08-27T02:17:55.893Z,20.71
2022-08-27T02:18:59.916Z,20.69
2022-08-27T02:20:03.752Z,20.78
2022-08-27T02:21:06.306Z,20.79
2022-08-27T02:22:08.766Z,20.79
2022-08-27T02:23:12.166Z,20.80
2022-08-27T02:24:14.557Z,20.81
2022-08-27T02:25:17.186Z,20.79
2022-08-27T02:26:20.567Z,20.77
2022-08-27T02:27:22.960Z,20.76
2022-08-27T02:28:25.418Z,20.71
2022-08-27T02:29:27.874Z,20.74
2022-08-27T02:30:32.620Z,20.76
2022-08-27T02:31:35.461Z,20.72
2022-08-27T02:32:38.228Z,20.74
2022-08-27T02:33:40.595Z,20.64
2022-08-27T02:34:43.302Z,20.65
2022-08-27T02:35:45.690Z,20.67
2022-08-27T02:36:48.290Z,20.58
2022-08-27T02:37:51.709Z,20.61
2022-08-27T02:38:54.201Z,20.61
2022-08-27T02:39:58.501Z,20.47
2022-08-27T02:41:02.279Z,20.55
2022-08-27T02:42:05.213Z,20.42
2022-08-27T02:43:08.205Z,20.56
2022-08-27T02:44:11.158Z,20.67
2022-08-27T02:45:17.187Z,20.68
2022-08-27T02:46:20.557Z,20.60
2022-08-27T02:47:23.310Z,20.62
2022-08-27T02:48:25.962Z,20.64
2022-08-27T02:49:29.645Z,20.55
2022-08-27T02:50:32.552Z,20.55
2022-08-27T02:51:36.518Z,20.51
2022-08-27T02:52:38.786Z,20.51
2022-08-27T02:53:41.363Z,20.47
2022-08-27T02:54:44.380Z,20.48
2022-08-27T02:55:47.472Z,20.54
2022-08-27T02:56:51.819Z,20.51
2022-08-27T02:57:54.620Z,20.51
2022-08-27T02:58:57.217Z,20.60
2022-08-27T02:59:59.620Z,20.55
2022-08-27T03:01:02.487Z,20.49
2022-08-27T03:02:05.049Z,20.50
2022-08-27T03:03:09.736Z,20.49
2022-08-27T03:04:13.832Z,20.45
2022-08-27T03:05:17.948Z,20.48
2022-08-27T03:06:20.996Z,20.38
2022-08-27T03:07:23.480Z,20.44
2022-08-27T03:08:27.375Z,20.43
2022-08-27T03:09:31.830Z,20.43
2022-08-27T03:10:34.430Z,20.44
2022-08-27T03:11:36.914Z,20.43
2022-08-27T03:12:40.460Z,20.38
2022-08-27T03:13:42.935Z,20.41
2022-08-27T03:14:45.431Z,20.31
2022-08-27T03:15:48.149Z,20.34
2022-08-27T03:16:52.429Z,20.34
2022-08-27T03:17:54.765Z,20.31
2022-08-27T03:18:57.463Z,20.39
2022-08-27T03:20:00.370Z,20.41
2022-08-27T03:21:02.932Z,20.41
2022-08-27T03:22:05.364Z,20.48
2022-08-27T03:23:12.379Z,20.41
2022-08-27T03:24:14.918Z,20.37
2022-08-27T03:25:17.774Z,20.43
2022-08-27T03:26:20.803Z,20.44
2022-08-27T03:27:24.767Z,20.43
2022-08-27T03:28:30.807Z,20.51
2022-08-27T03:29:35.503Z,20.54
2022-08-27T03:30:38.462Z,20.46
2022-08-27T03:31:40.948Z,20.53
2022-08-27T03:32:43.681Z,20.54
2022-08-27T03:33:46.260Z,20.54
2022-08-27T03:34:48.766Z,20.44
2022-08-27T03:35:52.239Z,20.47
2022-08-27T03:36:54.974Z,20.51
2022-08-27T03:37:57.470Z,20.53
2022-08-27T03:39:00.008Z,20.46
2022-08-27T03:40:04.531Z,20.37
2022-08-27T03:41:07.216Z,20.36
2022-08-27T03:42:09.607Z,20.41
2022-08-27T03:43:13.840Z,20.44
2022-08-27T03:44:21.463Z,20.44
2022-08-27T03:45:20.887Z,20.42
2022-08-27T03:46:25.055Z,20.43
2022-08-27T03:47:27.726Z,20.57
2022-08-27T03:48:31.917Z,20.58
2022-08-27T03:49:35.081Z,20.45
2022-08-27T03:50:42.825Z,20.34
2022-08-27T03:51:45.457Z,20.42
2022-08-27T03:52:48.119Z,20.43
2022-08-27T03:53:51.119Z,20.50
2022-08-27T03:54:53.409Z,20.53
2022-08-27T03:55:55.817Z,20.57
2022-08-27T03:56:58.708Z,20.64
2022-08-27T03:58:01.202Z,20.57
2022-08-27T03:59:04.031Z,20.58
2022-08-27T04:00:08.956Z,20.66
2022-08-27T04:01:11.667Z,20.70
2022-08-27T04:02:14.960Z,20.74
2022-08-27T04:03:17.785Z,20.76
2022-08-27T04:04:20.585Z,20.61
2022-08-27T04:05:23.394Z,20.57
2022-08-27T04:06:27.798Z,20.67
2022-08-27T04:07:30.434Z,20.73
2022-08-27T04:08:32.725Z,20.82
2022-08-27T04:09:35.629Z,20.81
2022-08-27T04:10:41.495Z,20.79
2022-08-27T04:11:44.005Z,20.85
2022-08-27T04:12:46.501Z,20.81
2022-08-27T04:13:49.204Z,20.77
2022-08-27T04:14:51.643Z,20.68
2022-08-27T04:15:54.438Z,20.69
2022-08-27T04:16:58.025Z,20.77
2022-08-27T04:18:00.432Z,20.73
2022-08-27T04:19:04.876Z,20.79
2022-08-27T04:20:34.201Z,20.81
2022-08-27T04:21:14.638Z,20.82
2022-08-27T04:22:17.184Z,20.77
2022-08-27T04:23:19.922Z,20.93
2022-08-27T04:24:22.488Z,20.80
2022-08-27T04:25:24.953Z,20.93
2022-08-27T04:26:28.280Z,20.83
2022-08-27T04:27:30.581Z,20.92
2022-08-27T04:28:38.265Z,20.79
2022-08-27T04:29:38.133Z,20.92
2022-08-27T04:30:44.868Z,20.97
2022-08-27T04:31:47.761Z,20.83
2022-08-27T04:32:50.142Z,20.91
2022-08-27T04:33:52.732Z,20.93
2022-08-27T04:34:56.491Z,20.79
2022-08-27T04:36:02.037Z,20.73
2022-08-27T04:37:04.736Z,20.79
2022-08-27T04:38:07.161Z,20.79
2022-08-27T04:39:09.622Z,20.89
2022-08-27T04:40:12.558Z,20.90
2022-08-27T04:41:15.228Z,20.83
2022-08-27T04:42:19.033Z,20.83
2022-08-27T04:43:21.866Z,20.79
2022-08-27T04:44:29.563Z,20.80
2022-08-27T04:45:31.993Z,20.81
2022-08-27T04:46:39.107Z,20.86
2022-08-27T04:47:41.726Z,20.85
2022-08-27T04:48:43.920Z,20.89
2022-08-27T04:49:46.907Z,20.93
2022-08-27T04:50:50.224Z,20.96
2022-08-27T04:51:53.667Z,21.04
2022-08-27T04:52:56.239Z,21.02
2022-08-27T04:54:00.883Z,21.03
2022-08-27T04:55:03.590Z,21.02
2022-08-27T04:56:06.599Z,21.05
2022-08-27T04:57:10.942Z,21.05
2022-08-27T04:58:13.438Z,21.03
2022-08-27T04:59:18.710Z,20.98
2022-08-27T05:00:22.031Z,21.00
2022-08-27T05:01:28.066Z,21.04
2022-08-27T05:02:30.718Z,20.99
2022-08-27T05:03:34.036Z,20.95
2022-08-27T05:04:38.452Z,20.92
2022-08-27T05:05:42.699Z,20.97
2022-08-27T05:06:46.243Z,20.92
2022-08-27T05:07:48.375Z,20.96
2022-08-27T05:08:54.210Z,21.05
2022-08-27T05:09:56.569Z,21.02
2022-08-27T05:10:59.399Z,21.01
2022-08-27T05:12:02.928Z,20.94
2022-08-27T05:13:05.156Z,20.87
2022-08-27T05:14:09.771Z,20.88
2022-08-27T05:15:12.374Z,20.83
2022-08-27T05:16:19.160Z,20.87
2022-08-27T05:17:21.772Z,20.90
2022-08-27T05:18:24.344Z,20.87
2022-08-27T05:19:27.274Z,20.76
2022-08-27T05:20:31.103Z,20.80
2022-08-27T05:21:34.959Z,20.73
2022-08-27T05:22:37.742Z,20.79
2022-08-27T05:23:40.444Z,20.87
2022-08-27T05:24:45.021Z,20.79
2022-08-27T05:25:48.714Z,20.81
2022-08-27T05:26:52.031Z,20.80
2022-08-27T05:27:54.322Z,20.53
2022-08-27T05:28:58.727Z,20.71
2022-08-27T05:30:01.536Z,20.76
2022-08-27T05:31:07.518Z,20.71
2022-08-27T05:32:10.049Z,20.71
2022-08-27T05:33:15.321Z,20.78
2022-08-27T05:34:22.099Z,20.81
2022-08-27T05:35:22.474Z,20.74
2022-08-27T05:36:29.084Z,20.78
2022-08-27T05:37:32.043Z,20.80
2022-08-27T05:38:35.144Z,20.68
2022-08-27T05:39:37.893Z,20.69
2022-08-27T05:40:40.798Z,20.74
2022-08-27T05:41:43.408Z,20.79
2022-08-27T05:42:46.460Z,20.88
2022-08-27T05:43:51.183Z,20.93
2022-08-27T05:44:53.768Z,20.93
2022-08-27T05:45:56.610Z,20.92
2022-08-27T05:46:59.569Z,20.89
2022-08-27T05:48:02.578Z,20.86
2022-08-27T05:49:06.431Z,20.97
2022-08-27T05:50:09.723Z,20.98
2022-08-27T05:51:22.590Z,20.93
2022-08-27T05:52:22.760Z,20.89
2022-08-27T05:53:25.109Z,20.92
2022-08-27T05:54:27.453Z,20.90
2022-08-27T05:55:30.128Z,20.99
2022-08-27T05:56:36.000Z,20.98
2022-08-27T05:57:38.396Z,21.01
2022-08-27T05:58:41.684Z,20.94
2022-08-27T05:59:44.029Z,20.92
2022-08-27T06:00:46.918Z,20.88
2022-08-27T06:01:51.265Z,20.94
2022-08-27T06:02:54.155Z,20.97
2022-08-27T06:03:56.861Z,21.10
2022-08-27T06:04:59.382Z,21.06
2022-08-27T06:06:08.823Z,21.02
2022-08-27T06:07:11.126Z,21.02
2022-08-27T06:08:13.937Z,20.94
2022-08-27T06:09:19.963Z,20.98
2022-08-27T06:10:22.913Z,20.98
2022-08-27T06:11:25.631Z,20.99
2022-08-27T06:12:28.466Z,21.03
2022-08-27T06:13:32.669Z,20.93
2022-08-27T06:14:36.714Z,20.98
2022-08-27T06:15:39.651Z,21.04
2022-08-27T06:16:42.840Z,21.00
2022-08-27T06:17:47.577Z,20.97
2022-08-27T06:18:50.273Z,21.01
2022-08-27T06:19:52.887Z,20.99
2022-08-27T06:20:56.018Z,21.02
2022-08-27T06:22:00.679Z,21.06
2022-08-27T06:23:02.942Z,21.08
2022-08-27T06:24:06.267Z,21.05
2022-08-27T06:25:11.133Z,21.09
2022-08-27T06:26:16.685Z,21.12
2022-08-27T06:27:19.899Z,21.12
2022-08-27T06:28:23.502Z,21.10
2022-08-27T06:29:26.046Z,21.15
2022-08-27T06:30:28.725Z,21.14
2022-08-27T06:31:33.505Z,21.09
2022-08-27T06:32:36.334Z,21.12
2022-08-27T06:33:39.542Z,21.21
2022-08-27T06:34:41.830Z,21.18
2022-08-27T06:35:46.549Z,21.13
2022-08-27T06:36:49.077Z,21.15
2022-08-27T06:37:53.627Z,21.09
2022-08-27T06:38:56.851Z,21.06
2022-08-27T06:39:59.296Z,21.10
2022-08-27T06:41:07.283Z,21.14
2022-08-27T06:42:12.241Z,21.14
2022-08-27T06:43:14.838Z,21.11
2022-08-27T06:44:17.442Z,21.13
2022-08-27T06:45:20.134Z,21.15
2022-08-27T06:46:26.437Z,21.15
2022-08-27T06:47:32.125Z,21.19
2022-08-27T06:48:34.611Z,21.20
2022-08-27T06:49:39.340Z,21.16
2022-08-27T06:50:42.810Z,21.16
2022-08-27T06:51:47.454Z,21.24
2022-08-27T06:52:49.784Z,20.96
2022-08-27T06:53:58.490Z,21.37
2022-08-27T06:55:01.084Z,21.36
2022-08-27T06:56:03.991Z,21.45
2022-08-27T06:57:06.493Z,21.37
2022-08-27T06:58:08.957Z,21.43
2022-08-27T06:59:14.261Z,21.56
2022-08-27T07:00:18.108Z,21.56
2022-08-27T07:01:26.354Z,21.36
2022-08-27T07:02:32.019Z,21.68
2022-08-27T07:03:36.259Z,21.76
2022-08-27T07:04:38.740Z,21.82
2022-08-27T07:05:41.458Z,21.79
2022-08-27T07:06:45.307Z,21.88
2022-08-27T07:07:48.905Z,21.94
2022-08-27T07:08:53.490Z,21.94
2022-08-27T07:09:57.131Z,21.95
2022-08-27T07:10:59.894Z,22.07
2022-08-27T07:12:04.325Z,22.10
2022-08-27T07:13:06.949Z,22.10
2022-08-27T07:14:09.433Z,22.20
2022-08-27T07:15:11.952Z,22.22
2022-08-27T07:16:23.218Z,22.27
2022-08-27T07:17:25.716Z,22.34
2022-08-27T07:18:28.050Z,22.35
2022-08-27T07:19:30.349Z,22.36
2022-08-27T07:20:33.038Z,22.41
2022-08-27T07:21:37.592Z,22.41
2022-08-27T07:22:41.828Z,22.43
2022-08-27T07:23:49.780Z,22.41
2022-08-27T07:24:52.166Z,22.47
2022-08-27T07:25:54.554Z,22.48
2022-08-27T07:26:57.211Z,22.41
2022-08-27T07:28:00.163Z,22.46
2022-08-27T07:29:04.663Z,22.49
2022-08-27T07:30:10.618Z,22.52
2022-08-27T07:31:15.972Z,22.55
2022-08-27T07:32:18.372Z,22.59
2022-08-27T07:33:28.468Z,22.61
2022-08-27T07:34:30.839Z,22.62
2022-08-27T07:35:35.087Z,22.68
2022-08-27T07:36:38.919Z,22.77
2022-08-27T07:37:41.376Z,22.76
2022-08-27T07:38:43.605Z,22.75
2022-08-27T07:39:51.029Z,22.79
2022-08-27T07:40:55.625Z,22.80
2022-08-27T07:41:58.935Z,22.85
2022-08-27T07:43:01.494Z,22.91
2022-08-27T07:44:03.608Z,22.96
2022-08-27T07:45:07.605Z,22.97
2022-08-27T07:46:10.352Z,23.01
2022-08-27T07:47:12.813Z,22.96
2022-08-27T07:48:15.790Z,23.02
2022-08-27T07:50:29.948Z,23.20
2022-08-27T07:51:33.091Z,23.03
2022-08-27T07:52:35.975Z,23.12
2022-08-27T07:53:38.775Z,23.09
2022-08-27T07:54:41.409Z,23.05
2022-08-27T07:55:46.027Z,23.08
2022-08-27T07:56:55.511Z,23.11
2022-08-27T07:57:58.828Z,23.18
2022-08-27T07:59:04.020Z,23.16
2022-08-27T08:00:12.059Z,23.19
2022-08-27T08:01:18.054Z,23.19
2022-08-27T08:02:20.744Z,23.27
2022-08-27T08:03:25.453Z,23.27
2022-08-27T08:04:27.894Z,23.36
2022-08-27T08:05:30.607Z,23.30
2022-08-27T08:06:37.228Z,23.29
2022-08-27T08:07:39.860Z,23.32
2022-08-27T08:08:47.143Z,23.36
2022-08-27T08:09:50.233Z,23.42
2022-08-27T08:10:59.287Z,23.49
2022-08-27T08:12:05.801Z,23.24
2022-08-27T08:13:09.000Z,23.63
2022-08-27T08:14:11.908Z,23.74
2022-08-27T08:15:14.752Z,23.88
2022-08-27T08:16:18.118Z,23.90
2022-08-27T08:17:20.854Z,24.02
2022-08-27T08:18:23.405Z,24.11
2022-08-27T08:19:26.122Z,24.25
2022-08-27T08:20:54.150Z,24.32
2022-08-27T08:21:36.499Z,24.46
2022-08-27T08:22:39.387Z,24.58
2022-08-27T08:23:45.301Z,24.72
2022-08-27T08:24:47.822Z,24.76
2022-08-27T08:25:50.451Z,24.90
2022-08-27T08:26:53.017Z,24.97
2022-08-27T08:27:55.402Z,25.11
2022-08-27T08:28:58.072Z,25.23
2022-08-27T08:30:00.812Z,25.26
2022-08-27T08:31:05.105Z,25.38
2022-08-27T08:32:08.489Z,25.36
2022-08-27T08:33:11.094Z,25.55
2022-08-27T08:34:14.171Z,25.64
2022-08-27T08:35:18.275Z,25.79
2022-08-27T08:36:22.516Z,25.77
2022-08-27T08:37:26.053Z,25.82
2022-08-27T08:38:28.612Z,25.94
2022-08-27T08:39:32.761Z,25.89
2022-08-27T08:40:41.729Z,25.97
2022-08-27T08:43:02.563Z,26.19
2022-08-27T08:44:08.685Z,26.16
2022-08-27T08:45:17.453Z,26.34
2022-08-27T08:46:39.167Z,26.46
2022-08-27T08:47:57.488Z,26.39
2022-08-27T08:49:04.043Z,26.41
2022-08-27T08:50:20.092Z,26.63
2022-08-27T08:51:32.259Z,26.60
2022-08-27T08:52:46.524Z,26.30
2022-08-27T08:54:02.070Z,26.63
2022-08-27T08:55:14.312Z,26.73
2022-08-27T08:56:25.032Z,26.67
2022-08-27T08:57:34.357Z,26.92
2022-08-27T09:00:03.176Z,27.22
2022-08-27T09:01:10.388Z,27.16
2022-08-27T09:02:15.150Z,27.30
2022-08-27T09:03:20.491Z,27.35
2022-08-27T09:04:25.469Z,27.41
2022-08-27T09:05:28.427Z,27.50
2022-08-27T09:06:53.806Z,27.43
2022-08-27T09:08:34.221Z,27.42
2022-08-27T09:09:27.170Z,27.48
2022-08-27T09:10:54.122Z,27.42
2022-08-27T09:12:03.330Z,27.52
2022-08-27T09:13:09.197Z,27.42
2022-08-27T09:14:36.453Z,27.64
2022-08-27T09:15:40.902Z,27.71
2022-08-27T09:16:43.980Z,27.65
2022-08-27T09:17:46.715Z,27.67
2022-08-27T09:18:52.586Z,27.70
2022-08-27T09:19:55.558Z,27.75
2022-08-27T09:21:08.891Z,27.66
2022-08-27T09:22:37.409Z,27.76
2022-08-27T09:23:55.616Z,27.76
2022-08-27T09:25:10.647Z,27.77
2022-08-27T09:26:19.211Z,27.84
2022-08-27T09:27:26.204Z,27.76
2022-08-27T09:28:29.761Z,27.83
2022-08-27T09:29:32.142Z,27.75
2022-08-27T09:30:38.361Z,27.80
2022-08-27T09:31:43.298Z,27.84
2022-08-27T09:32:47.923Z,27.69
2022-08-27T09:33:56.511Z,27.74
2022-08-27T09:35:00.537Z,27.66
2022-08-27T09:36:06.537Z,27.84
2022-08-27T09:37:18.476Z,27.88
2022-08-27T09:38:27.138Z,27.86
2022-08-27T09:39:44.702Z,27.91
2022-08-27T09:40:51.236Z,27.91
2022-08-27T09:41:54.976Z,28.03
2022-08-27T09:43:06.933Z,27.91
2022-08-27T09:44:14.537Z,28.04
2022-08-27T09:45:20.868Z,28.03
2022-08-27T09:46:25.471Z,28.17
2022-08-27T09:47:29.854Z,28.20
2022-08-27T09:48:34.933Z,28.14
2022-08-27T09:49:37.419Z,28.33
2022-08-27T09:50:44.114Z,28.24
2022-08-27T09:51:47.653Z,28.25
2022-08-27T09:52:56.122Z,28.14
2022-08-27T09:54:02.722Z,28.40
2022-08-27T09:55:06.544Z,28.45
2022-08-27T09:56:12.765Z,28.48
2022-08-27T09:57:18.826Z,28.54
2022-08-27T09:58:46.302Z,28.56
2022-08-27T09:59:54.563Z,28.70
2022-08-27T10:01:19.182Z,28.70
2022-08-27T10:02:24.828Z,28.63
2022-08-27T10:03:31.372Z,28.77
2022-08-27T10:04:51.872Z,28.65
2022-08-27T10:05:56.969Z,28.73
2022-08-27T10:07:03.171Z,28.77
2022-08-27T10:08:12.340Z,28.74
2022-08-27T10:09:33.462Z,28.81
2022-08-27T10:10:55.884Z,28.70
2022-08-27T10:12:06.903Z,28.67
2022-08-27T10:13:16.047Z,28.83
2022-08-27T10:14:28.138Z,28.73
2022-08-27T10:15:49.742Z,28.86
2022-08-27T10:16:59.018Z,28.75
2022-08-27T10:18:14.401Z,28.58
2022-08-27T10:19:26.220Z,28.52
2022-08-27T10:20:44.440Z,28.69
2022-08-27T10:21:54.519Z,28.68
2022-08-27T10:23:09.877Z,28.70
2022-08-27T10:24:27.911Z,28.64
2022-08-27T10:25:47.301Z,28.67
2022-08-27T10:27:26.849Z,28.58
2022-08-27T10:29:04.909Z,28.72
2022-08-27T10:30:13.932Z,28.79
2022-08-27T10:31:20.205Z,28.75
2022-08-27T10:32:32.343Z,28.80
2022-08-27T10:34:03.467Z,28.77
2022-08-27T10:35:10.627Z,28.66
2022-08-27T10:36:36.182Z,28.57
2022-08-27T10:37:51.335Z,28.43
2022-08-27T10:39:25.402Z,28.53
2022-08-27T10:40:32.546Z,28.46
2022-08-27T10:41:42.043Z,28.51
2022-08-27T10:42:57.816Z,28.54
2022-08-27T10:44:04.025Z,28.56
2022-08-27T10:46:57.663Z,28.78
2022-08-27T10:48:09.833Z,28.75
2022-08-27T10:49:22.310Z,28.83
2022-08-27T10:50:44.234Z,28.88
2022-08-27T10:52:06.480Z,28.96
2022-08-27T10:53:13.893Z,29.15
2022-08-27T10:54:22.967Z,29.20
2022-08-27T10:55:31.832Z,29.23
2022-08-27T10:57:00.099Z,29.31
2022-08-27T10:58:16.353Z,28.97
2022-08-27T10:59:43.762Z,29.33
2022-08-27T11:01:08.422Z,29.40
2022-08-27T11:02:34.443Z,29.15
2022-08-27T11:03:58.908Z,29.46
2022-08-27T11:05:08.523Z,29.36
2022-08-27T11:07:37.515Z,29.33
2022-08-27T11:08:46.852Z,29.19
2022-08-27T11:09:58.947Z,29.17
2022-08-27T11:12:03.362Z,29.21
2022-08-27T11:12:29.728Z,29.17
2022-08-27T11:13:44.829Z,29.09
2022-08-27T11:14:50.796Z,29.13
2022-08-27T11:15:54.684Z,29.11
2022-08-27T11:18:44.388Z,29.18
2022-08-27T11:19:56.135Z,29.12
2022-08-27T11:21:08.908Z,29.14
2022-08-27T11:23:56.144Z,29.31
2022-08-27T11:25:23.715Z,29.11
2022-08-27T11:26:30.320Z,29.11
2022-08-27T11:27:34.459Z,29.11
2022-08-27T11:28:50.021Z,29.24
2022-08-27T11:30:00.234Z,29.21
2022-08-27T11:31:04.642Z,29.21
2022-08-27T11:32:19.692Z,29.04
2022-08-27T11:33:37.206Z,29.29
2022-08-27T11:34:52.214Z,29.28
2022-08-27T11:36:01.299Z,29.31
2022-08-27T11:37:35.150Z,29.32
2022-08-27T11:38:56.553Z,29.34
2022-08-27T11:40:05.484Z,29.26
2022-08-27T11:41:33.350Z,29.42
2022-08-27T11:42:53.327Z,29.39
2022-08-27T11:43:59.489Z,29.43
2022-08-27T11:45:24.075Z,29.33
2022-08-27T11:46:30.087Z,29.45
2022-08-27T11:47:32.800Z,29.47
2022-08-27T11:48:43.156Z,29.39
2022-08-27T11:49:52.159Z,29.29
2022-08-27T11:51:01.714Z,29.51
2022-08-27T11:52:08.884Z,29.56
2022-08-27T11:53:11.428Z,29.55
2022-08-27T11:54:29.594Z,29.59
2022-08-27T11:56:45.859Z,29.72
2022-08-27T11:57:51.632Z,29.65
2022-08-27T11:58:54.330Z,29.69
2022-08-27T11:59:57.350Z,29.60
2022-08-27T12:01:04.538Z,29.59
2022-08-27T12:02:25.145Z,29.70
2022-08-27T12:03:31.136Z,29.74
2022-08-27T12:04:37.469Z,29.70
2022-08-27T12:05:49.376Z,29.71
2022-08-27T12:07:17.264Z,29.64
2022-08-27T12:08:26.282Z,29.51
2022-08-27T12:09:31.496Z,29.56
2022-08-27T12:10:57.534Z,29.53
2022-08-27T12:12:09.707Z,29.57
2022-08-27T12:13:18.460Z,29.61
2022-08-27T12:14:30.736Z,29.62
2022-08-27T12:15:52.396Z,29.64
2022-08-27T12:17:26.300Z,29.53
2022-08-27T12:18:38.429Z,29.62
2022-08-27T12:20:18.297Z,29.68
2022-08-27T12:21:51.875Z,29.59
2022-08-27T12:24:38.590Z,29.82
2022-08-27T12:25:41.408Z,29.72
2022-08-27T12:26:56.542Z,29.78
2022-08-27T12:28:02.003Z,29.74
2022-08-27T12:29:27.713Z,29.93
2022-08-27T12:30:39.791Z,30.00
2022-08-27T12:31:48.042Z,30.00
2022-08-27T12:32:51.534Z,29.99
2022-08-27T12:33:54.364Z,29.75
2022-08-27T12:35:03.536Z,30.03
2022-08-27T12:36:17.505Z,30.03
2022-08-27T12:37:25.073Z,30.05
2022-08-27T12:38:33.759Z,29.94
2022-08-27T12:39:39.788Z,29.88
2022-08-27T12:40:52.211Z,29.88
2022-08-27T12:42:01.529Z,29.86
2022-08-27T12:43:10.743Z,29.78
2022-08-27T12:44:25.782Z,29.76
2022-08-27T12:45:28.373Z,29.77
2022-08-27T12:46:31.380Z,29.76
2022-08-27T12:47:37.371Z,29.83
2022-08-27T12:48:46.448Z,29.68
2022-08-27T12:50:01.381Z,29.75
2022-08-27T12:51:12.295Z,29.69
2022-08-27T12:52:27.950Z,29.63
2022-08-27T12:53:36.936Z,29.71
2022-08-27T12:55:02.348Z,29.71
2022-08-27T12:56:45.339Z,29.73
2022-08-27T12:58:15.337Z,29.74
2022-08-27T12:59:47.773Z,29.82
2022-08-27T13:01:07.302Z,29.82
2022-08-27T13:03:49.086Z,29.84
2022-08-27T13:04:52.228Z,29.80
2022-08-27T13:05:54.835Z,29.89
2022-08-27T13:06:57.365Z,29.85
2022-08-27T13:07:59.929Z,29.86
2022-08-27T13:09:07.964Z,29.86
2022-08-27T13:10:17.349Z,29.81
2022-08-27T13:11:23.235Z,29.75
2022-08-27T13:12:25.827Z,29.82
2022-08-27T13:13:28.426Z,29.84
2022-08-27T13:14:37.085Z,29.86
2022-08-27T13:15:48.758Z,29.80
2022-08-27T13:17:00.995Z,29.85
2022-08-27T13:18:05.701Z,29.84
2022-08-27T13:19:12.039Z,29.90
2022-08-27T13:20:18.342Z,29.95
2022-08-27T13:21:31.014Z,30.02
2022-08-27T13:22:39.381Z,30.03
2022-08-27T13:23:49.423Z,30.02
2022-08-27T13:24:54.956Z,30.06
2022-08-27T13:27:19.853Z,30.16
2022-08-27T13:28:25.760Z,30.02
2022-08-27T13:29:28.706Z,29.93
2022-08-27T13:30:36.159Z,29.85
2022-08-27T13:31:37.420Z,29.78
2022-08-27T13:32:42.380Z,29.72
2022-08-27T13:33:45.396Z,29.67
2022-08-27T13:34:48.783Z,29.69
2022-08-27T13:35:53.406Z,29.69
2022-08-27T13:36:59.352Z,29.70
2022-08-27T13:38:07.598Z,29.75
2022-08-27T13:39:13.867Z,29.68
2022-08-27T13:40:30.335Z,29.69
2022-08-27T13:41:36.203Z,29.73
2022-08-27T13:42:42.605Z,29.69
2022-08-27T13:43:47.535Z,29.60
2022-08-27T13:44:52.767Z,29.55
2022-08-27T13:45:55.935Z,29.49
2022-08-27T13:47:08.928Z,29.52
2022-08-27T13:48:14.663Z,29.52
2022-08-27T13:49:20.078Z,29.54
2022-08-27T13:50:26.991Z,29.40
2022-08-27T13:51:32.663Z,29.52
2022-08-27T13:52:41.031Z,29.49
2022-08-27T13:53:47.381Z,29.41
2022-08-27T13:54:54.977Z,29.43
2022-08-27T13:55:59.759Z,29.39
2022-08-27T13:57:08.802Z,29.43
2022-08-27T13:58:14.656Z,29.49
2022-08-27T13:59:23.592Z,29.37
2022-08-27T14:00:32.724Z,29.42
2022-08-27T14:01:35.962Z,29.51
2022-08-27T14:02:40.900Z,29.54
2022-08-27T14:03:53.039Z,29.49
2022-08-27T14:05:17.022Z,29.47
2022-08-27T14:06:41.460Z,29.47
2022-08-27T14:07:49.754Z,29.55
2022-08-27T14:08:55.337Z,29.41
2022-08-27T14:10:20.598Z,29.40
2022-08-27T14:11:25.807Z,29.42
2022-08-27T14:12:34.405Z,29.45
2022-08-27T14:13:46.286Z,29.51
2022-08-27T14:14:49.016Z,29.40
2022-08-27T14:15:54.387Z,29.47
2022-08-27T14:17:00.281Z,29.32
2022-08-27T14:18:05.761Z,29.32
2022-08-27T14:19:23.983Z,29.41
2022-08-27T14:20:29.040Z,29.42
2022-08-27T14:21:32.866Z,29.33
2022-08-27T14:22:35.467Z,29.31
2022-08-27T14:23:38.175Z,29.39
2022-08-27T14:24:41.789Z,29.36
2022-08-27T14:25:44.834Z,29.32
2022-08-27T14:26:52.742Z,29.33
2022-08-27T14:27:57.191Z,29.29
2022-08-27T14:29:00.228Z,29.23
2022-08-27T14:30:05.051Z,29.22
2022-08-27T14:31:08.014Z,29.16
2022-08-27T14:32:12.011Z,29.11
2022-08-27T14:33:14.698Z,29.03
2022-08-27T14:34:19.424Z,28.98
2022-08-27T14:35:27.715Z,28.86